sensor_id;sensor_type;location;lat;lon;timestamp;P1;durP1;ratioP1;P2;durP2;ratioP2
11006;SDS011;8186;57.652;11.968;2022-07-22T00:00:30;18.73;;;16.83;;
11006;SDS011;8186;57.652;11.968;2022-07-22T00:02:56;20.15;;;18.30;;
11006;SDS011;8186;57.652;11.968;2022-07-22T00:05:23;20.42;;;18.48;;
11006;SDS011;8186;57.652;11.968;2022-07-22T00:07:50;21.67;;;19.42;;
11006;SDS011;8186;57.652;11.968;2022-07-22T00:10:17;21.40;;;19.30;;
11006;SDS011;8186;57.652;11.968;2022-07-22T00:12:45;24.40;;;21.40;;
11006;SDS011;8186;57.652;11.968;2022-07-22T00:15:12;25.33;;;22.83;;
11006;SDS011;8186;57.652;11.968;2022-07-22T00:17:39;24.67;;;22.05;;
11006;SDS011;8186;57.652;11.968;2022-07-22T00:20:07;27.40;;;23.15;;
11006;SDS011;8186;57.652;11.968;2022-07-22T00:22:34;27.20;;;24.30;;
11006;SDS011;8186;57.652;11.968;2022-07-22T00:25:01;27.20;;;24.42;;
11006;SDS011;8186;57.652;11.968;2022-07-22T00:27:28;33.85;;;26.20;;
11006;SDS011;8186;57.652;11.968;2022-07-22T00:29:57;28.85;;;25.38;;
11006;SDS011;8186;57.652;11.968;2022-07-22T00:32:23;30.23;;;26.73;;
11006;SDS011;8186;57.652;11.968;2022-07-22T00:34:50;29.20;;;26.00;;
11006;SDS011;8186;57.652;11.968;2022-07-22T00:37:17;30.92;;;27.05;;
11006;SDS011;8186;57.652;11.968;2022-07-22T00:39:44;32.33;;;28.88;;
11006;SDS011;8186;57.652;11.968;2022-07-22T00:42:13;32.40;;;29.05;;
11006;SDS011;8186;57.652;11.968;2022-07-22T00:44:39;31.38;;;28.08;;
11006;SDS011;8186;57.652;11.968;2022-07-22T00:47:08;32.45;;;29.17;;
11006;SDS011;8186;57.652;11.968;2022-07-22T00:49:35;31.40;;;28.10;;
11006;SDS011;8186;57.652;11.968;2022-07-22T00:52:02;31.15;;;27.95;;
11006;SDS011;8186;57.652;11.968;2022-07-22T00:54:29;33.75;;;30.15;;
11006;SDS011;8186;57.652;11.968;2022-07-22T00:56:56;34.13;;;29.65;;
11006;SDS011;8186;57.652;11.968;2022-07-22T00:59:23;35.17;;;29.92;;
11006;SDS011;8186;57.652;11.968;2022-07-22T01:01:50;32.78;;;28.33;;
11006;SDS011;8186;57.652;11.968;2022-07-22T01:04:18;32.38;;;28.90;;
11006;SDS011;8186;57.652;11.968;2022-07-22T01:06:45;33.10;;;29.80;;
11006;SDS011;8186;57.652;11.968;2022-07-22T01:09:13;33.95;;;30.08;;
11006;SDS011;8186;57.652;11.968;2022-07-22T01:11:40;40.00;;;29.95;;
11006;SDS011;8186;57.652;11.968;2022-07-22T01:14:07;35.35;;;30.75;;
11006;SDS011;8186;57.652;11.968;2022-07-22T01:16:34;36.50;;;31.58;;
11006;SDS011;8186;57.652;11.968;2022-07-22T01:19:02;33.83;;;30.38;;
11006;SDS011;8186;57.652;11.968;2022-07-22T01:21:30;32.70;;;29.27;;
11006;SDS011;8186;57.652;11.968;2022-07-22T01:23:57;38.30;;;30.15;;
11006;SDS011;8186;57.652;11.968;2022-07-22T01:26:24;36.65;;;29.08;;
11006;SDS011;8186;57.652;11.968;2022-07-22T01:28:51;30.08;;;20.13;;
11006;SDS011;8186;57.652;11.968;2022-07-22T01:31:18;21.05;;;16.00;;
11006;SDS011;8186;57.652;11.968;2022-07-22T01:33:45;21.33;;;13.90;;
11006;SDS011;8186;57.652;11.968;2022-07-22T01:36:12;24.00;;;12.35;;
11006;SDS011;8186;57.652;11.968;2022-07-22T01:38:40;25.23;;;10.60;;
11006;SDS011;8186;57.652;11.968;2022-07-22T01:41:07;20.73;;;10.63;;
11006;SDS011;8186;57.652;11.968;2022-07-22T01:43:34;18.20;;;9.63;;
11006;SDS011;8186;57.652;11.968;2022-07-22T01:46:01;20.58;;;9.80;;
11006;SDS011;8186;57.652;11.968;2022-07-22T01:48:28;23.00;;;9.02;;
11006;SDS011;8186;57.652;11.968;2022-07-22T01:50:55;20.13;;;9.27;;
11006;SDS011;8186;57.652;11.968;2022-07-22T01:53:22;18.75;;;10.00;;
11006;SDS011;8186;57.652;11.968;2022-07-22T01:55:50;18.40;;;9.23;;
11006;SDS011;8186;57.652;11.968;2022-07-22T01:58:17;26.42;;;10.07;;
11006;SDS011;8186;57.652;11.968;2022-07-22T02:00:44;24.20;;;9.57;;
11006;SDS011;8186;57.652;11.968;2022-07-22T02:03:11;19.45;;;9.57;;
11006;SDS011;8186;57.652;11.968;2022-07-22T02:05:37;25.40;;;9.80;;
11006;SDS011;8186;57.652;11.968;2022-07-22T02:08:05;23.85;;;9.88;;
11006;SDS011;8186;57.652;11.968;2022-07-22T02:10:33;32.13;;;9.52;;
11006;SDS011;8186;57.652;11.968;2022-07-22T02:13:01;22.83;;;8.18;;
11006;SDS011;8186;57.652;11.968;2022-07-22T02:15:28;22.70;;;8.02;;
11006;SDS011;8186;57.652;11.968;2022-07-22T02:17:55;19.48;;;7.47;;
11006;SDS011;8186;57.652;11.968;2022-07-22T02:20:22;16.88;;;7.13;;
11006;SDS011;8186;57.652;11.968;2022-07-22T02:22:49;19.23;;;7.32;;
11006;SDS011;8186;57.652;11.968;2022-07-22T02:25:16;18.13;;;6.97;;
11006;SDS011;8186;57.652;11.968;2022-07-22T02:27:43;22.00;;;7.90;;
11006;SDS011;8186;57.652;11.968;2022-07-22T02:30:11;17.30;;;7.15;;
11006;SDS011;8186;57.652;11.968;2022-07-22T02:32:38;18.48;;;6.68;;
11006;SDS011;8186;57.652;11.968;2022-07-22T02:35:05;18.50;;;6.72;;
11006;SDS011;8186;57.652;11.968;2022-07-22T02:37:34;25.83;;;6.88;;
11006;SDS011;8186;57.652;11.968;2022-07-22T02:40:03;21.60;;;7.20;;
11006;SDS011;8186;57.652;11.968;2022-07-22T02:42:32;16.75;;;7.20;;
11006;SDS011;8186;57.652;11.968;2022-07-22T02:44:59;15.30;;;6.90;;
11006;SDS011;8186;57.652;11.968;2022-07-22T02:47:27;20.17;;;7.13;;
11006;SDS011;8186;57.652;11.968;2022-07-22T02:49:54;21.17;;;6.72;;
11006;SDS011;8186;57.652;11.968;2022-07-22T02:52:21;20.42;;;6.55;;
11006;SDS011;8186;57.652;11.968;2022-07-22T02:54:48;19.17;;;7.13;;
11006;SDS011;8186;57.652;11.968;2022-07-22T02:57:14;21.48;;;6.40;;
11006;SDS011;8186;57.652;11.968;2022-07-22T02:59:41;22.20;;;7.43;;
11006;SDS011;8186;57.652;11.968;2022-07-22T03:02:08;24.90;;;7.65;;
11006;SDS011;8186;57.652;11.968;2022-07-22T03:04:36;25.13;;;6.93;;
11006;SDS011;8186;57.652;11.968;2022-07-22T03:07:03;21.33;;;7.03;;
11006;SDS011;8186;57.652;11.968;2022-07-22T03:09:30;22.42;;;7.60;;
11006;SDS011;8186;57.652;11.968;2022-07-22T03:11:56;21.27;;;7.70;;
11006;SDS011;8186;57.652;11.968;2022-07-22T03:14:23;17.60;;;6.05;;
11006;SDS011;8186;57.652;11.968;2022-07-22T03:16:50;16.55;;;6.70;;
11006;SDS011;8186;57.652;11.968;2022-07-22T03:19:17;20.30;;;7.60;;
11006;SDS011;8186;57.652;11.968;2022-07-22T03:21:45;19.58;;;7.15;;
11006;SDS011;8186;57.652;11.968;2022-07-22T03:24:11;24.50;;;8.18;;
11006;SDS011;8186;57.652;11.968;2022-07-22T03:26:38;23.55;;;6.65;;
11006;SDS011;8186;57.652;11.968;2022-07-22T03:29:05;18.88;;;7.15;;
11006;SDS011;8186;57.652;11.968;2022-07-22T03:31:32;20.90;;;7.38;;
11006;SDS011;8186;57.652;11.968;2022-07-22T03:33:59;18.48;;;7.07;;
11006;SDS011;8186;57.652;11.968;2022-07-22T03:36:26;18.63;;;7.22;;
11006;SDS011;8186;57.652;11.968;2022-07-22T03:38:55;21.50;;;7.57;;
11006;SDS011;8186;57.652;11.968;2022-07-22T03:41:22;19.05;;;7.13;;
11006;SDS011;8186;57.652;11.968;2022-07-22T03:43:49;19.27;;;7.15;;
11006;SDS011;8186;57.652;11.968;2022-07-22T03:46:15;22.45;;;6.85;;
11006;SDS011;8186;57.652;11.968;2022-07-22T03:48:42;21.98;;;8.07;;
11006;SDS011;8186;57.652;11.968;2022-07-22T03:51:09;21.27;;;7.50;;
11006;SDS011;8186;57.652;11.968;2022-07-22T03:53:35;25.85;;;7.38;;
11006;SDS011;8186;57.652;11.968;2022-07-22T03:56:04;19.50;;;7.65;;
11006;SDS011;8186;57.652;11.968;2022-07-22T03:58:32;17.98;;;7.32;;
11006;SDS011;8186;57.652;11.968;2022-07-22T04:00:59;16.35;;;6.85;;
11006;SDS011;8186;57.652;11.968;2022-07-22T04:03:25;18.55;;;7.65;;
11006;SDS011;8186;57.652;11.968;2022-07-22T04:05:52;18.02;;;7.40;;
11006;SDS011;8186;57.652;11.968;2022-07-22T04:08:19;20.05;;;7.10;;
11006;SDS011;8186;57.652;11.968;2022-07-22T04:10:46;17.75;;;7.00;;
11006;SDS011;8186;57.652;11.968;2022-07-22T04:13:14;16.05;;;6.88;;
11006;SDS011;8186;57.652;11.968;2022-07-22T04:15:41;15.68;;;6.93;;
11006;SDS011;8186;57.652;11.968;2022-07-22T04:18:07;20.38;;;7.05;;
11006;SDS011;8186;57.652;11.968;2022-07-22T04:20:34;16.05;;;6.97;;
11006;SDS011;8186;57.652;11.968;2022-07-22T04:23:01;20.20;;;7.50;;
11006;SDS011;8186;57.652;11.968;2022-07-22T04:25:28;15.90;;;6.38;;
11006;SDS011;8186;57.652;11.968;2022-07-22T04:27:54;15.50;;;6.97;;
11006;SDS011;8186;57.652;11.968;2022-07-22T04:30:23;17.05;;;7.25;;
11006;SDS011;8186;57.652;11.968;2022-07-22T04:32:50;13.52;;;7.45;;
11006;SDS011;8186;57.652;11.968;2022-07-22T04:35:17;18.80;;;6.82;;
11006;SDS011;8186;57.652;11.968;2022-07-22T04:37:44;16.27;;;7.18;;
11006;SDS011;8186;57.652;11.968;2022-07-22T04:40:11;26.13;;;8.20;;
11006;SDS011;8186;57.652;11.968;2022-07-22T04:42:38;17.15;;;6.57;;
11006;SDS011;8186;57.652;11.968;2022-07-22T04:45:05;17.83;;;6.80;;
11006;SDS011;8186;57.652;11.968;2022-07-22T04:47:33;20.50;;;7.15;;
11006;SDS011;8186;57.652;11.968;2022-07-22T04:50:00;15.85;;;6.80;;
11006;SDS011;8186;57.652;11.968;2022-07-22T04:52:27;15.80;;;6.63;;
11006;SDS011;8186;57.652;11.968;2022-07-22T04:54:54;15.50;;;6.68;;
11006;SDS011;8186;57.652;11.968;2022-07-22T04:57:24;11.85;;;6.22;;
11006;SDS011;8186;57.652;11.968;2022-07-22T04:59:50;10.35;;;5.82;;
11006;SDS011;8186;57.652;11.968;2022-07-22T05:02:17;16.73;;;6.70;;
11006;SDS011;8186;57.652;11.968;2022-07-22T05:04:45;14.25;;;6.20;;
11006;SDS011;8186;57.652;11.968;2022-07-22T05:07:12;14.98;;;6.38;;
11006;SDS011;8186;57.652;11.968;2022-07-22T05:09:39;13.38;;;6.10;;
11006;SDS011;8186;57.652;11.968;2022-07-22T05:12:06;14.65;;;6.80;;
11006;SDS011;8186;57.652;11.968;2022-07-22T05:14:33;10.52;;;6.00;;
11006;SDS011;8186;57.652;11.968;2022-07-22T05:17:00;14.70;;;6.30;;
11006;SDS011;8186;57.652;11.968;2022-07-22T05:19:26;11.43;;;5.95;;
11006;SDS011;8186;57.652;11.968;2022-07-22T05:21:54;11.88;;;6.25;;
11006;SDS011;8186;57.652;11.968;2022-07-22T05:24:21;13.18;;;5.88;;
11006;SDS011;8186;57.652;11.968;2022-07-22T05:26:48;11.02;;;5.25;;
11006;SDS011;8186;57.652;11.968;2022-07-22T05:29:15;7.90;;;4.70;;
11006;SDS011;8186;57.652;11.968;2022-07-22T05:31:41;13.70;;;5.45;;
11006;SDS011;8186;57.652;11.968;2022-07-22T05:34:08;15.57;;;6.47;;
11006;SDS011;8186;57.652;11.968;2022-07-22T05:36:35;14.40;;;5.90;;
11006;SDS011;8186;57.652;11.968;2022-07-22T05:39:03;14.70;;;5.18;;
11006;SDS011;8186;57.652;11.968;2022-07-22T05:41:30;18.38;;;5.80;;
11006;SDS011;8186;57.652;11.968;2022-07-22T05:43:57;12.90;;;5.65;;
11006;SDS011;8186;57.652;11.968;2022-07-22T05:46:23;15.15;;;6.80;;
11006;SDS011;8186;57.652;11.968;2022-07-22T05:48:50;10.00;;;5.82;;
11006;SDS011;8186;57.652;11.968;2022-07-22T05:51:17;19.15;;;6.53;;
11006;SDS011;8186;57.652;11.968;2022-07-22T05:53:44;16.20;;;5.68;;
11006;SDS011;8186;57.652;11.968;2022-07-22T05:56:12;10.10;;;5.60;;
11006;SDS011;8186;57.652;11.968;2022-07-22T05:58:39;15.00;;;5.55;;
11006;SDS011;8186;57.652;11.968;2022-07-22T06:01:06;10.75;;;5.82;;
11006;SDS011;8186;57.652;11.968;2022-07-22T06:03:33;12.25;;;6.03;;
11006;SDS011;8186;57.652;11.968;2022-07-22T06:06:00;14.93;;;6.22;;
11006;SDS011;8186;57.652;11.968;2022-07-22T06:08:30;12.15;;;6.00;;
11006;SDS011;8186;57.652;11.968;2022-07-22T06:10:58;13.13;;;6.20;;
11006;SDS011;8186;57.652;11.968;2022-07-22T06:13:26;10.07;;;5.70;;
11006;SDS011;8186;57.652;11.968;2022-07-22T06:15:53;12.95;;;6.57;;
11006;SDS011;8186;57.652;11.968;2022-07-22T06:18:20;8.93;;;6.03;;
11006;SDS011;8186;57.652;11.968;2022-07-22T06:20:47;11.73;;;5.35;;
11006;SDS011;8186;57.652;11.968;2022-07-22T06:23:13;12.85;;;6.00;;
11006;SDS011;8186;57.652;11.968;2022-07-22T06:25:40;12.10;;;5.10;;
11006;SDS011;8186;57.652;11.968;2022-07-22T06:28:07;16.45;;;6.38;;
11006;SDS011;8186;57.652;11.968;2022-07-22T06:30:35;15.20;;;5.68;;
11006;SDS011;8186;57.652;11.968;2022-07-22T06:33:02;15.98;;;6.47;;
11006;SDS011;8186;57.652;11.968;2022-07-22T06:35:29;18.55;;;6.22;;
11006;SDS011;8186;57.652;11.968;2022-07-22T06:37:56;14.30;;;6.63;;
11006;SDS011;8186;57.652;11.968;2022-07-22T06:40:23;19.00;;;7.10;;
11006;SDS011;8186;57.652;11.968;2022-07-22T06:42:49;14.73;;;6.05;;
11006;SDS011;8186;57.652;11.968;2022-07-22T06:45:16;15.00;;;6.13;;
11006;SDS011;8186;57.652;11.968;2022-07-22T06:47:44;16.40;;;5.95;;
11006;SDS011;8186;57.652;11.968;2022-07-22T06:50:11;21.33;;;6.25;;
11006;SDS011;8186;57.652;11.968;2022-07-22T06:52:38;17.33;;;5.63;;
11006;SDS011;8186;57.652;11.968;2022-07-22T06:55:06;15.40;;;5.95;;
11006;SDS011;8186;57.652;11.968;2022-07-22T06:57:33;16.83;;;6.07;;
11006;SDS011;8186;57.652;11.968;2022-07-22T07:00:00;19.42;;;6.63;;
11006;SDS011;8186;57.652;11.968;2022-07-22T07:02:28;20.90;;;6.40;;
11006;SDS011;8186;57.652;11.968;2022-07-22T07:04:56;13.38;;;6.30;;
11006;SDS011;8186;57.652;11.968;2022-07-22T07:07:23;17.92;;;6.18;;
11006;SDS011;8186;57.652;11.968;2022-07-22T07:09:50;15.80;;;6.68;;
11006;SDS011;8186;57.652;11.968;2022-07-22T07:12:16;14.18;;;6.25;;
11006;SDS011;8186;57.652;11.968;2022-07-22T07:14:43;13.45;;;6.57;;
11006;SDS011;8186;57.652;11.968;2022-07-22T07:17:10;16.10;;;6.45;;
11006;SDS011;8186;57.652;11.968;2022-07-22T07:19:37;18.70;;;6.25;;
11006;SDS011;8186;57.652;11.968;2022-07-22T07:22:05;20.17;;;6.75;;
11006;SDS011;8186;57.652;11.968;2022-07-22T07:24:32;15.73;;;6.60;;
11006;SDS011;8186;57.652;11.968;2022-07-22T07:26:59;14.27;;;5.57;;
11006;SDS011;8186;57.652;11.968;2022-07-22T07:29:25;14.40;;;6.22;;
11006;SDS011;8186;57.652;11.968;2022-07-22T07:31:52;14.37;;;5.93;;
11006;SDS011;8186;57.652;11.968;2022-07-22T07:34:19;15.05;;;5.55;;
11006;SDS011;8186;57.652;11.968;2022-07-22T07:36:46;14.95;;;6.20;;
11006;SDS011;8186;57.652;11.968;2022-07-22T07:39:14;13.73;;;6.35;;
11006;SDS011;8186;57.652;11.968;2022-07-22T07:41:40;15.63;;;6.10;;
11006;SDS011;8186;57.652;11.968;2022-07-22T07:44:07;16.25;;;6.03;;
11006;SDS011;8186;57.652;11.968;2022-07-22T07:46:34;15.15;;;6.15;;
11006;SDS011;8186;57.652;11.968;2022-07-22T07:49:01;15.55;;;5.80;;
11006;SDS011;8186;57.652;11.968;2022-07-22T07:51:28;14.15;;;6.15;;
11006;SDS011;8186;57.652;11.968;2022-07-22T07:53:55;13.73;;;6.10;;
11006;SDS011;8186;57.652;11.968;2022-07-22T07:56:23;16.75;;;6.43;;
11006;SDS011;8186;57.652;11.968;2022-07-22T07:58:50;15.77;;;6.20;;
11006;SDS011;8186;57.652;11.968;2022-07-22T08:01:17;16.13;;;5.95;;
11006;SDS011;8186;57.652;11.968;2022-07-22T08:03:44;12.27;;;6.20;;
11006;SDS011;8186;57.652;11.968;2022-07-22T08:06:10;10.35;;;5.50;;
11006;SDS011;8186;57.652;11.968;2022-07-22T08:08:37;10.90;;;5.65;;
11006;SDS011;8186;57.652;11.968;2022-07-22T08:11:04;11.40;;;6.15;;
11006;SDS011;8186;57.652;11.968;2022-07-22T08:13:32;12.82;;;5.35;;
11006;SDS011;8186;57.652;11.968;2022-07-22T08:15:59;11.25;;;5.85;;
11006;SDS011;8186;57.652;11.968;2022-07-22T08:18:26;13.00;;;5.50;;
11006;SDS011;8186;57.652;11.968;2022-07-22T08:20:54;9.93;;;4.88;;
11006;SDS011;8186;57.652;11.968;2022-07-22T08:23:21;13.45;;;5.50;;
11006;SDS011;8186;57.652;11.968;2022-07-22T08:25:48;13.02;;;5.70;;
11006;SDS011;8186;57.652;11.968;2022-07-22T08:28:14;10.10;;;5.60;;
11006;SDS011;8186;57.652;11.968;2022-07-22T08:30:42;14.45;;;5.93;;
11006;SDS011;8186;57.652;11.968;2022-07-22T08:33:09;14.07;;;5.95;;
11006;SDS011;8186;57.652;11.968;2022-07-22T08:35:36;12.15;;;5.82;;
11006;SDS011;8186;57.652;11.968;2022-07-22T08:38:03;13.95;;;6.43;;
11006;SDS011;8186;57.652;11.968;2022-07-22T08:40:30;14.65;;;5.88;;
11006;SDS011;8186;57.652;11.968;2022-07-22T08:42:57;18.02;;;6.28;;
11006;SDS011;8186;57.652;11.968;2022-07-22T08:45:26;18.55;;;6.00;;
11006;SDS011;8186;57.652;11.968;2022-07-22T08:47:56;11.52;;;5.78;;
11006;SDS011;8186;57.652;11.968;2022-07-22T08:50:23;15.77;;;6.63;;
11006;SDS011;8186;57.652;11.968;2022-07-22T08:52:50;17.60;;;6.20;;
11006;SDS011;8186;57.652;11.968;2022-07-22T08:55:17;19.20;;;6.28;;
11006;SDS011;8186;57.652;11.968;2022-07-22T08:57:44;14.13;;;5.50;;
11006;SDS011;8186;57.652;11.968;2022-07-22T09:00:12;16.00;;;5.55;;
11006;SDS011;8186;57.652;11.968;2022-07-22T09:02:41;17.30;;;6.30;;
11006;SDS011;8186;57.652;11.968;2022-07-22T09:05:10;14.00;;;6.07;;
11006;SDS011;8186;57.652;11.968;2022-07-22T09:07:39;12.30;;;6.00;;
11006;SDS011;8186;57.652;11.968;2022-07-22T09:10:09;15.75;;;6.22;;
11006;SDS011;8186;57.652;11.968;2022-07-22T09:12:41;15.27;;;5.88;;
11006;SDS011;8186;57.652;11.968;2022-07-22T09:15:24;13.18;;;6.00;;
11006;SDS011;8186;57.652;11.968;2022-07-22T09:17:53;11.20;;;5.50;;
11006;SDS011;8186;57.652;11.968;2022-07-22T09:20:21;16.23;;;5.50;;
11006;SDS011;8186;57.652;11.968;2022-07-22T09:22:48;20.30;;;5.65;;
11006;SDS011;8186;57.652;11.968;2022-07-22T09:25:23;14.38;;;4.53;;
11006;SDS011;8186;57.652;11.968;2022-07-22T09:27:53;22.40;;;6.05;;
11006;SDS011;8186;57.652;11.968;2022-07-22T09:30:22;15.75;;;5.28;;
11006;SDS011;8186;57.652;11.968;2022-07-22T09:32:50;16.67;;;5.38;;
11006;SDS011;8186;57.652;11.968;2022-07-22T09:35:18;16.70;;;5.38;;
11006;SDS011;8186;57.652;11.968;2022-07-22T09:37:50;19.42;;;5.78;;
11006;SDS011;8186;57.652;11.968;2022-07-22T09:40:19;15.23;;;5.22;;
11006;SDS011;8186;57.652;11.968;2022-07-22T09:42:48;16.30;;;5.47;;
11006;SDS011;8186;57.652;11.968;2022-07-22T09:45:16;17.08;;;5.47;;
11006;SDS011;8186;57.652;11.968;2022-07-22T09:47:43;18.83;;;4.95;;
11006;SDS011;8186;57.652;11.968;2022-07-22T09:50:14;20.40;;;5.50;;
11006;SDS011;8186;57.652;11.968;2022-07-22T09:52:43;17.27;;;5.25;;
11006;SDS011;8186;57.652;11.968;2022-07-22T09:55:11;14.68;;;5.10;;
11006;SDS011;8186;57.652;11.968;2022-07-22T09:57:40;22.40;;;6.32;;
11006;SDS011;8186;57.652;11.968;2022-07-22T10:00:07;18.15;;;5.35;;
11006;SDS011;8186;57.652;11.968;2022-07-22T10:02:36;19.23;;;6.07;;
11006;SDS011;8186;57.652;11.968;2022-07-22T10:05:07;16.88;;;5.43;;
11006;SDS011;8186;57.652;11.968;2022-07-22T10:07:35;13.90;;;5.13;;
11006;SDS011;8186;57.652;11.968;2022-07-22T10:10:03;16.48;;;4.47;;
11006;SDS011;8186;57.652;11.968;2022-07-22T10:12:32;15.77;;;5.00;;
11006;SDS011;8186;57.652;11.968;2022-07-22T10:15:00;13.77;;;4.65;;
11006;SDS011;8186;57.652;11.968;2022-07-22T10:17:27;15.32;;;4.72;;
11006;SDS011;8186;57.652;11.968;2022-07-22T10:19:54;16.40;;;5.07;;
11006;SDS011;8186;57.652;11.968;2022-07-22T10:25:18;13.73;;;4.28;;
11006;SDS011;8186;57.652;11.968;2022-07-22T10:27:48;14.60;;;4.88;;
11006;SDS011;8186;57.652;11.968;2022-07-22T10:30:17;15.70;;;4.72;;
11006;SDS011;8186;57.652;11.968;2022-07-22T10:32:44;13.93;;;4.25;;
11006;SDS011;8186;57.652;11.968;2022-07-22T10:35:24;20.45;;;5.03;;
11006;SDS011;8186;57.652;11.968;2022-07-22T10:37:51;21.02;;;5.22;;
11006;SDS011;8186;57.652;11.968;2022-07-22T10:40:19;17.15;;;4.60;;
11006;SDS011;8186;57.652;11.968;2022-07-22T10:43:04;17.73;;;5.30;;
11006;SDS011;8186;57.652;11.968;2022-07-22T10:45:33;17.27;;;4.50;;
11006;SDS011;8186;57.652;11.968;2022-07-22T10:48:01;20.08;;;5.45;;
11006;SDS011;8186;57.652;11.968;2022-07-22T10:50:41;15.85;;;4.03;;
11006;SDS011;8186;57.652;11.968;2022-07-22T10:53:10;16.48;;;5.10;;
11006;SDS011;8186;57.652;11.968;2022-07-22T10:55:38;13.15;;;3.45;;
11006;SDS011;8186;57.652;11.968;2022-07-22T11:01:12;17.77;;;4.72;;
11006;SDS011;8186;57.652;11.968;2022-07-22T11:03:41;18.02;;;4.78;;
11006;SDS011;8186;57.652;11.968;2022-07-22T11:06:12;14.85;;;4.13;;
11006;SDS011;8186;57.652;11.968;2022-07-22T11:08:44;16.83;;;5.15;;
11006;SDS011;8186;57.652;11.968;2022-07-22T11:11:12;18.85;;;4.20;;
11006;SDS011;8186;57.652;11.968;2022-07-22T11:13:39;15.95;;;4.43;;
11006;SDS011;8186;57.652;11.968;2022-07-22T11:16:19;15.00;;;4.60;;
11006;SDS011;8186;57.652;11.968;2022-07-22T11:18:47;15.15;;;4.78;;
11006;SDS011;8186;57.652;11.968;2022-07-22T11:21:19;18.30;;;4.55;;
11006;SDS011;8186;57.652;11.968;2022-07-22T11:23:47;15.95;;;3.30;;
11006;SDS011;8186;57.652;11.968;2022-07-22T11:26:16;15.02;;;3.92;;
11006;SDS011;8186;57.652;11.968;2022-07-22T11:28:44;13.73;;;4.10;;
11006;SDS011;8186;57.652;11.968;2022-07-22T11:31:13;13.27;;;4.25;;
11006;SDS011;8186;57.652;11.968;2022-07-22T11:33:42;15.80;;;3.97;;
11006;SDS011;8186;57.652;11.968;2022-07-22T11:36:09;14.23;;;3.95;;
11006;SDS011;8186;57.652;11.968;2022-07-22T11:38:44;16.77;;;4.30;;
11006;SDS011;8186;57.652;11.968;2022-07-22T11:41:12;15.00;;;4.10;;
11006;SDS011;8186;57.652;11.968;2022-07-22T11:43:40;17.45;;;4.72;;
11006;SDS011;8186;57.652;11.968;2022-07-22T11:46:07;11.75;;;4.13;;
11006;SDS011;8186;57.652;11.968;2022-07-22T11:48:34;14.38;;;4.07;;
11006;SDS011;8186;57.652;11.968;2022-07-22T11:51:04;11.88;;;4.20;;
11006;SDS011;8186;57.652;11.968;2022-07-22T11:53:32;12.05;;;3.60;;
11006;SDS011;8186;57.652;11.968;2022-07-22T11:55:59;13.48;;;3.80;;
11006;SDS011;8186;57.652;11.968;2022-07-22T11:58:36;12.02;;;3.85;;
11006;SDS011;8186;57.652;11.968;2022-07-22T12:01:04;12.00;;;3.45;;
11006;SDS011;8186;57.652;11.968;2022-07-22T12:03:32;14.73;;;4.18;;
11006;SDS011;8186;57.652;11.968;2022-07-22T12:06:00;12.02;;;3.30;;
11006;SDS011;8186;57.652;11.968;2022-07-22T12:08:29;15.95;;;4.05;;
11006;SDS011;8186;57.652;11.968;2022-07-22T12:10:57;12.13;;;3.25;;
11006;SDS011;8186;57.652;11.968;2022-07-22T12:13:28;14.43;;;4.40;;
11006;SDS011;8186;57.652;11.968;2022-07-22T12:15:56;11.82;;;3.53;;
11006;SDS011;8186;57.652;11.968;2022-07-22T12:18:23;10.65;;;3.17;;
11006;SDS011;8186;57.652;11.968;2022-07-22T12:20:52;16.10;;;3.90;;
11006;SDS011;8186;57.652;11.968;2022-07-22T12:23:19;12.15;;;3.83;;
11006;SDS011;8186;57.652;11.968;2022-07-22T12:25:55;15.32;;;4.72;;
11006;SDS011;8186;57.652;11.968;2022-07-22T12:28:22;11.57;;;3.53;;
11006;SDS011;8186;57.652;11.968;2022-07-22T12:30:50;11.13;;;4.10;;
11006;SDS011;8186;57.652;11.968;2022-07-22T12:33:19;9.93;;;3.35;;
11006;SDS011;8186;57.652;11.968;2022-07-22T12:35:57;17.02;;;3.60;;
11006;SDS011;8186;57.652;11.968;2022-07-22T12:38:25;13.10;;;4.03;;
11006;SDS011;8186;57.652;11.968;2022-07-22T12:40:52;11.50;;;3.58;;
11006;SDS011;8186;57.652;11.968;2022-07-22T12:43:23;14.38;;;4.05;;
11006;SDS011;8186;57.652;11.968;2022-07-22T12:45:50;12.43;;;3.80;;
11006;SDS011;8186;57.652;11.968;2022-07-22T12:48:17;11.35;;;3.47;;
11006;SDS011;8186;57.652;11.968;2022-07-22T12:50:53;10.00;;;3.40;;
11006;SDS011;8186;57.652;11.968;2022-07-22T12:53:21;16.48;;;4.00;;
11006;SDS011;8186;57.652;11.968;2022-07-22T12:55:48;15.77;;;3.83;;
11006;SDS011;8186;57.652;11.968;2022-07-22T12:58:17;10.60;;;3.50;;
11006;SDS011;8186;57.652;11.968;2022-07-22T13:00:46;13.98;;;4.18;;
11006;SDS011;8186;57.652;11.968;2022-07-22T13:03:13;12.25;;;3.80;;
11006;SDS011;8186;57.652;11.968;2022-07-22T13:05:44;14.00;;;3.90;;
11006;SDS011;8186;57.652;11.968;2022-07-22T13:08:10;10.98;;;3.63;;
11006;SDS011;8186;57.652;11.968;2022-07-22T13:10:37;11.27;;;4.18;;
11006;SDS011;8186;57.652;11.968;2022-07-22T13:13:04;11.32;;;3.88;;
11006;SDS011;8186;57.652;11.968;2022-07-22T13:15:31;11.45;;;3.88;;
11006;SDS011;8186;57.652;11.968;2022-07-22T13:17:59;13.70;;;3.97;;
11006;SDS011;8186;57.652;11.968;2022-07-22T13:20:26;14.70;;;3.40;;
11006;SDS011;8186;57.652;11.968;2022-07-22T13:22:53;13.82;;;3.83;;
11006;SDS011;8186;57.652;11.968;2022-07-22T13:25:19;11.68;;;4.10;;
11006;SDS011;8186;57.652;11.968;2022-07-22T13:27:46;12.98;;;3.92;;
11006;SDS011;8186;57.652;11.968;2022-07-22T13:30:13;8.88;;;3.75;;
11006;SDS011;8186;57.652;11.968;2022-07-22T13:32:40;13.15;;;4.32;;
11006;SDS011;8186;57.652;11.968;2022-07-22T13:35:08;17.80;;;4.55;;
11006;SDS011;8186;57.652;11.968;2022-07-22T13:37:35;13.88;;;3.92;;
11006;SDS011;8186;57.652;11.968;2022-07-22T13:40:02;17.55;;;4.90;;
11006;SDS011;8186;57.652;11.968;2022-07-22T13:42:30;13.45;;;4.53;;
11006;SDS011;8186;57.652;11.968;2022-07-22T13:44:57;14.10;;;3.95;;
11006;SDS011;8186;57.652;11.968;2022-07-22T13:47:24;14.52;;;3.72;;
11006;SDS011;8186;57.652;11.968;2022-07-22T13:49:52;15.63;;;4.22;;
11006;SDS011;8186;57.652;11.968;2022-07-22T13:52:20;15.23;;;4.20;;
11006;SDS011;8186;57.652;11.968;2022-07-22T13:54:47;15.57;;;4.47;;
11006;SDS011;8186;57.652;11.968;2022-07-22T13:57:14;15.80;;;4.60;;
11006;SDS011;8186;57.652;11.968;2022-07-22T13:59:41;17.52;;;4.38;;
11006;SDS011;8186;57.652;11.968;2022-07-22T14:02:08;18.00;;;4.63;;
11006;SDS011;8186;57.652;11.968;2022-07-22T14:04:35;18.65;;;4.75;;
11006;SDS011;8186;57.652;11.968;2022-07-22T14:07:02;12.18;;;3.85;;
11006;SDS011;8186;57.652;11.968;2022-07-22T14:09:30;11.70;;;3.47;;
11006;SDS011;8186;57.652;11.968;2022-07-22T14:11:57;14.07;;;4.45;;
11006;SDS011;8186;57.652;11.968;2022-07-22T14:14:24;13.27;;;3.70;;
11006;SDS011;8186;57.652;11.968;2022-07-22T14:16:51;9.68;;;3.60;;
11006;SDS011;8186;57.652;11.968;2022-07-22T14:19:18;10.95;;;4.05;;
11006;SDS011;8186;57.652;11.968;2022-07-22T14:21:45;13.07;;;4.10;;
11006;SDS011;8186;57.652;11.968;2022-07-22T14:24:12;11.95;;;3.55;;
11006;SDS011;8186;57.652;11.968;2022-07-22T14:26:41;11.40;;;4.10;;
11006;SDS011;8186;57.652;11.968;2022-07-22T14:29:08;9.13;;;3.63;;
11006;SDS011;8186;57.652;11.968;2022-07-22T14:31:35;13.25;;;3.88;;
11006;SDS011;8186;57.652;11.968;2022-07-22T14:34:02;14.25;;;4.68;;
11006;SDS011;8186;57.652;11.968;2022-07-22T14:36:29;16.10;;;4.28;;
11006;SDS011;8186;57.652;11.968;2022-07-22T14:38:56;12.35;;;3.70;;
11006;SDS011;8186;57.652;11.968;2022-07-22T14:41:22;11.25;;;4.43;;